Portada
METAR-TAF:

METAR-TAF

Aeroports :

Plataforma petroliera

Goeree Le, Països Baixos

latitud: 51-55-33N, longitud: 3-40-12E, altitud: 19 m

Observació

L'informe es va fer fa 41 minuts, a les 08:25 UTC
Vent 13 kt del Oest
Temperatura 17°C
Humitat 72%
Pressió 1025 hPa
Visibilitat 10 km o més

METAR: EHSC 220825Z AUTO 26013KT 9999 ///////// 17/12 Q1025 W19/H4

Hora: 11:06 (09:06 UTC)


TAF: manca

Observacions i pronòstics meteorològics de més de 4000 aeroports (METAR i TAF).

Les estacions disponibles són els punts grocs i vermells al mapa.

Posi el ratolí al punt desitjat per veure el nom de l'estació.

Feu clic per veure les observacions i els pronòstics meteorològics.

Per canviar el mapa: feu clic els botons verds amb una creu de color negre per apropar; al botó verd amb un guió per allunyar la imatge; o en les fletxes verdes per a mapes adjacents.


METAR-TAF: